createdAt,value
2023-05-12T00:00:51.190Z,8.40
2023-05-12T00:03:19.363Z,8.45
2023-05-12T00:05:47.380Z,8.52
2023-05-12T00:08:15.616Z,8.46
2023-05-12T00:10:43.663Z,8.48
2023-05-12T00:13:11.975Z,8.39
2023-05-12T00:15:39.818Z,8.30
2023-05-12T00:18:08.111Z,8.10
2023-05-12T00:20:36.061Z,7.97
2023-05-12T00:23:04.026Z,8.04
2023-05-12T00:25:31.902Z,7.90
2023-05-12T00:27:59.939Z,8.02
2023-05-12T00:30:27.886Z,8.04
2023-05-12T00:32:55.967Z,7.91
2023-05-12T00:35:24.054Z,8.01
2023-05-12T00:37:51.876Z,7.96
2023-05-12T00:40:20.044Z,7.94
2023-05-12T00:42:48.298Z,7.82
2023-05-12T00:45:16.538Z,8.00
2023-05-12T00:47:46.611Z,7.86
2023-05-12T00:50:15.458Z,8.08
2023-05-12T00:52:43.742Z,8.08
2023-05-12T00:55:11.869Z,8.23
2023-05-12T00:57:41.462Z,8.17
2023-05-12T01:00:10.967Z,8.04
2023-05-12T01:02:40.697Z,7.96
2023-05-12T01:05:10.195Z,7.80
2023-05-12T01:07:40.493Z,7.89
2023-05-12T01:10:20.336Z,7.76
2023-05-12T01:12:48.839Z,7.93
2023-05-12T01:15:19.100Z,8.02
2023-05-12T01:17:55.697Z,7.89
2023-05-12T01:20:27.128Z,7.73
2023-05-12T01:22:55.950Z,7.72
2023-05-12T01:25:31.219Z,7.78
2023-05-12T01:28:00.732Z,7.84
2023-05-12T01:30:30.438Z,7.94
2023-05-12T01:32:58.969Z,7.59
2023-05-12T01:35:27.188Z,7.49
2023-05-12T01:38:00.973Z,7.51
2023-05-12T01:40:29.169Z,7.79
2023-05-12T01:42:58.039Z,7.88
2023-05-12T01:45:28.782Z,7.97
2023-05-12T01:47:56.711Z,7.82
2023-05-12T01:50:24.630Z,7.93
2023-05-12T01:52:52.679Z,7.87
2023-05-12T01:55:21.522Z,8.04
2023-05-12T01:57:58.604Z,8.02
2023-05-12T02:00:27.515Z,8.11
2023-05-12T02:02:59.993Z,8.11
2023-05-12T02:05:28.085Z,8.16
2023-05-12T02:07:56.220Z,8.11
2023-05-12T02:10:24.251Z,8.13
2023-05-12T02:12:52.368Z,8.06
2023-05-12T02:15:20.471Z,7.93
2023-05-12T02:17:50.531Z,7.85
2023-05-12T02:20:19.729Z,7.83
2023-05-12T02:22:47.984Z,7.88
2023-05-12T02:25:16.091Z,7.91
2023-05-12T02:27:45.349Z,7.99
2023-05-12T02:30:14.152Z,8.08
2023-05-12T02:32:42.317Z,8.07
2023-05-12T02:35:10.802Z,8.07
2023-05-12T02:37:39.800Z,8.12
2023-05-12T02:40:08.534Z,8.14
2023-05-12T02:42:38.717Z,8.16
2023-05-12T02:45:08.461Z,8.13
2023-05-12T02:47:36.855Z,8.04
2023-05-12T02:50:06.062Z,8.08
2023-05-12T02:54:34.554Z,8.02
2023-05-12T02:57:07.059Z,8.03
2023-05-12T02:59:35.014Z,8.07
2023-05-12T03:02:03.008Z,8.13
2023-05-12T03:04:31.141Z,8.12
2023-05-12T03:06:59.399Z,8.04
2023-05-12T03:09:27.430Z,8.09
2023-05-12T03:11:55.447Z,8.09
2023-05-12T03:14:23.320Z,8.08
2023-05-12T03:16:51.328Z,8.08
2023-05-12T03:19:19.223Z,8.10
2023-05-12T03:21:47.216Z,8.09
2023-05-12T03:24:15.195Z,8.06
2023-05-12T03:26:43.269Z,8.12
2023-05-12T03:29:11.459Z,8.11
2023-05-12T03:31:39.593Z,8.16
2023-05-12T03:34:07.640Z,8.19
2023-05-12T03:36:35.569Z,8.24
2023-05-12T03:39:04.053Z,8.12
2023-05-12T03:41:34.014Z,8.07
2023-05-12T03:44:02.159Z,8.12
2023-05-12T03:46:31.668Z,8.23
2023-05-12T03:49:01.147Z,8.18
2023-05-12T03:51:29.105Z,8.27
2023-05-12T03:53:56.967Z,8.26
2023-05-12T03:56:25.162Z,8.23
2023-05-12T03:58:54.432Z,7.95
2023-05-12T04:01:22.466Z,8.10
2023-05-12T04:03:50.645Z,8.16
2023-05-12T04:06:18.566Z,8.14
2023-05-12T04:08:46.631Z,8.11
2023-05-12T04:11:14.503Z,8.18
2023-05-12T04:13:43.396Z,8.18
2023-05-12T04:16:11.462Z,8.24
2023-05-12T04:18:39.450Z,7.87
2023-05-12T04:21:09.335Z,8.04
2023-05-12T04:23:37.572Z,8.14
2023-05-12T04:26:05.684Z,8.18
2023-05-12T04:28:34.159Z,8.11
2023-05-12T04:31:04.836Z,7.86
2023-05-12T04:33:33.504Z,7.66
2023-05-12T04:36:02.004Z,7.76
2023-05-12T04:38:30.042Z,7.80
2023-05-12T04:40:59.728Z,7.77
2023-05-12T04:46:00.430Z,7.71
2023-05-12T04:48:29.537Z,7.81
2023-05-12T04:51:00.924Z,7.77
2023-05-12T04:53:29.446Z,7.92
2023-05-12T04:55:57.399Z,7.96
2023-05-12T04:58:28.287Z,7.95
2023-05-12T05:00:56.481Z,7.96
2023-05-12T05:03:24.917Z,7.90
2023-05-12T05:05:52.957Z,7.78
2023-05-12T05:08:21.014Z,7.83
2023-05-12T05:10:48.936Z,7.94
2023-05-12T05:13:17.072Z,8.01
2023-05-12T05:15:53.202Z,7.81
2023-05-12T05:18:24.043Z,7.75
2023-05-12T05:23:26.984Z,7.47
2023-05-12T05:25:55.627Z,7.14
2023-05-12T05:28:31.362Z,7.21
2023-05-12T05:30:59.737Z,7.13
2023-05-12T05:33:27.931Z,7.04
2023-05-12T05:35:56.136Z,7.19
2023-05-12T05:38:26.941Z,7.22
2023-05-12T05:40:54.932Z,7.24
2023-05-12T05:43:24.751Z,7.23
2023-05-12T05:45:56.062Z,7.29
2023-05-12T05:48:25.168Z,7.59
2023-05-12T05:50:53.926Z,7.47
2023-05-12T05:53:23.471Z,7.51
2023-05-12T05:55:52.369Z,7.48
2023-05-12T05:58:20.466Z,7.57
2023-05-12T06:00:49.952Z,7.77
2023-05-12T06:03:17.931Z,7.79
2023-05-12T06:05:46.061Z,7.82
2023-05-12T06:08:14.033Z,7.61
2023-05-12T06:10:42.227Z,7.87
2023-05-12T06:13:10.226Z,7.63
2023-05-12T06:15:38.894Z,7.47
2023-05-12T06:18:06.839Z,7.70
2023-05-12T06:20:35.074Z,7.47
2023-05-12T06:23:02.963Z,7.62
2023-05-12T06:25:33.310Z,7.51
2023-05-12T06:28:02.386Z,7.39
2023-05-12T06:30:30.372Z,7.32
2023-05-12T06:32:58.420Z,7.39
2023-05-12T06:35:26.329Z,7.49
2023-05-12T06:37:54.282Z,7.66
2023-05-12T06:40:22.134Z,7.70
2023-05-12T06:42:50.294Z,7.65
2023-05-12T06:45:23.691Z,7.63
2023-05-12T06:47:52.681Z,7.64
2023-05-12T06:50:20.901Z,7.77
2023-05-12T06:52:53.717Z,7.61
2023-05-12T06:55:22.250Z,7.73
2023-05-12T06:57:55.848Z,7.84
2023-05-12T07:00:25.220Z,7.98
2023-05-12T07:02:53.634Z,8.01
2023-05-12T07:05:21.799Z,7.91
2023-05-12T07:07:50.150Z,8.08
2023-05-12T07:10:18.206Z,8.13
2023-05-12T07:12:46.348Z,8.20
2023-05-12T07:15:14.314Z,8.20
2023-05-12T07:17:42.453Z,8.16
2023-05-12T07:20:10.673Z,8.05
2023-05-12T07:22:39.059Z,8.00
2023-05-12T07:25:08.315Z,8.05
2023-05-12T07:27:36.320Z,7.89
2023-05-12T07:30:08.676Z,8.08
2023-05-12T07:32:36.679Z,7.98
2023-05-12T07:35:05.413Z,7.86
2023-05-12T07:37:33.313Z,8.09
2023-05-12T07:40:01.581Z,8.03
2023-05-12T07:42:29.476Z,8.23
2023-05-12T07:44:57.435Z,8.43
2023-05-12T07:47:25.762Z,8.33
2023-05-12T07:49:53.612Z,8.29
2023-05-12T07:52:21.542Z,8.32
2023-05-12T07:54:49.440Z,8.45
2023-05-12T07:57:17.402Z,8.53
2023-05-12T07:59:45.275Z,8.59
2023-05-12T08:02:13.426Z,8.49
2023-05-12T08:04:43.205Z,8.50
2023-05-12T08:07:12.480Z,8.61
2023-05-12T08:09:40.469Z,8.94
2023-05-12T08:12:08.832Z,9.04
2023-05-12T08:14:36.863Z,8.93
2023-05-12T08:17:05.425Z,8.93
2023-05-12T08:19:33.462Z,8.74
2023-05-12T08:22:02.263Z,8.82
2023-05-12T08:24:30.229Z,8.89
2023-05-12T08:26:58.233Z,9.04
2023-05-12T08:29:26.454Z,9.13
2023-05-12T08:31:54.753Z,9.06
2023-05-12T08:34:22.747Z,9.16
2023-05-12T08:36:52.961Z,9.09
2023-05-12T08:39:21.979Z,8.86
2023-05-12T08:42:02.578Z,8.90
2023-05-12T08:44:31.520Z,9.17
2023-05-12T08:47:01.937Z,9.25
2023-05-12T08:49:32.554Z,9.31
2023-05-12T08:52:02.538Z,9.25
2023-05-12T08:54:30.676Z,9.33
2023-05-12T08:59:30.850Z,9.81
2023-05-12T09:01:59.684Z,10.09
2023-05-12T09:04:27.841Z,10.33
2023-05-12T09:06:56.354Z,10.43
2023-05-12T09:09:27.496Z,10.39
2023-05-12T09:11:58.325Z,10.26
2023-05-12T09:14:26.722Z,10.39
2023-05-12T09:17:01.454Z,10.52
2023-05-12T09:19:29.833Z,10.39
2023-05-12T09:21:58.902Z,10.62
2023-05-12T09:24:36.649Z,11.00
2023-05-12T09:27:05.360Z,11.23
2023-05-12T09:29:37.408Z,11.02
2023-05-12T09:32:13.277Z,10.87
2023-05-12T09:34:41.645Z,10.58
2023-05-12T09:37:10.192Z,10.27
2023-05-12T09:39:38.093Z,10.26
2023-05-12T09:42:12.329Z,10.71
2023-05-12T09:44:41.549Z,10.73
2023-05-12T09:47:10.710Z,10.63
2023-05-12T09:49:38.976Z,10.86
2023-05-12T09:52:07.765Z,10.85
2023-05-12T09:54:36.694Z,10.89
2023-05-12T09:57:05.388Z,11.16
2023-05-12T09:59:34.656Z,11.04
2023-05-12T10:02:06.726Z,11.05
2023-05-12T10:04:50.269Z,11.59
2023-05-12T10:07:22.873Z,11.81
2023-05-12T10:09:51.053Z,12.03
2023-05-12T10:12:19.389Z,12.21
2023-05-12T10:14:48.674Z,12.22
2023-05-12T10:17:19.092Z,11.99
2023-05-12T10:19:48.870Z,12.26
2023-05-12T10:22:19.941Z,12.39
2023-05-12T10:24:49.607Z,12.32
2023-05-12T10:27:19.269Z,12.35
2023-05-12T10:29:48.591Z,12.25
2023-05-12T10:32:17.218Z,12.36
2023-05-12T10:34:45.320Z,12.01
2023-05-12T10:37:13.442Z,12.36
2023-05-12T10:39:53.057Z,12.07
2023-05-12T10:42:26.149Z,12.22
2023-05-12T10:44:55.613Z,12.33
2023-05-12T10:47:37.146Z,12.30
2023-05-12T10:50:05.845Z,12.04
2023-05-12T10:52:33.889Z,12.28
2023-05-12T10:55:03.498Z,12.09
2023-05-12T10:57:33.580Z,12.20
2023-05-12T11:00:04.311Z,11.96
2023-05-12T11:02:37.007Z,12.03
2023-05-12T11:05:13.072Z,12.22
2023-05-12T11:07:52.792Z,12.47
2023-05-12T11:10:21.930Z,12.57
2023-05-12T11:12:50.155Z,12.62
2023-05-12T11:15:18.443Z,12.34
2023-05-12T11:17:46.647Z,12.40
2023-05-12T11:20:25.016Z,12.82
2023-05-12T11:22:54.554Z,12.84
2023-05-12T11:25:22.771Z,12.64
2023-05-12T11:27:51.474Z,12.49
2023-05-12T11:30:20.064Z,11.96
2023-05-12T11:32:48.306Z,11.98
2023-05-12T11:35:18.448Z,11.96
2023-05-12T11:37:47.301Z,12.08
2023-05-12T11:40:20.109Z,12.03
2023-05-12T11:42:52.595Z,12.04
2023-05-12T11:45:29.566Z,12.02
2023-05-12T11:48:12.751Z,11.97
2023-05-12T11:50:43.301Z,12.01
2023-05-12T11:53:15.130Z,12.31
2023-05-12T11:55:55.086Z,12.23
2023-05-12T11:58:27.337Z,12.20
2023-05-12T12:00:56.073Z,12.05
2023-05-12T12:03:25.860Z,11.94
2023-05-12T12:06:04.586Z,11.89
2023-05-12T12:08:32.791Z,11.81
2023-05-12T12:11:03.382Z,11.71
2023-05-12T12:13:31.870Z,11.74
2023-05-12T12:15:59.976Z,11.70
2023-05-12T12:18:27.978Z,11.79
2023-05-12T12:20:55.783Z,12.01
2023-05-12T12:23:23.984Z,12.10
2023-05-12T12:25:51.902Z,11.97
2023-05-12T12:28:20.663Z,12.05
2023-05-12T12:30:48.525Z,12.21
2023-05-12T12:33:18.737Z,12.17
2023-05-12T12:35:48.293Z,12.22
2023-05-12T12:38:16.666Z,12.35
2023-05-12T12:40:45.592Z,12.28
2023-05-12T12:43:14.115Z,12.18
2023-05-12T12:45:42.258Z,12.21
2023-05-12T12:48:10.340Z,12.07
2023-05-12T12:50:38.823Z,12.30
2023-05-12T12:53:06.676Z,12.33
2023-05-12T12:55:34.626Z,12.16
2023-05-12T12:58:02.516Z,12.23
2023-05-12T13:00:30.657Z,12.36
2023-05-12T13:03:00.618Z,12.54
2023-05-12T13:05:29.018Z,12.21
2023-05-12T13:07:57.108Z,12.36
2023-05-12T13:10:25.764Z,12.35
2023-05-12T13:12:54.335Z,12.10
2023-05-12T13:15:22.947Z,11.90
2023-05-12T13:17:52.020Z,12.13
2023-05-12T13:20:20.250Z,12.25
2023-05-12T13:22:48.472Z,12.15
2023-05-12T13:25:16.410Z,12.30
2023-05-12T13:27:44.469Z,12.13
2023-05-12T13:30:13.868Z,12.23
2023-05-12T13:32:42.335Z,12.11
2023-05-12T13:35:10.757Z,12.24
2023-05-12T13:37:38.708Z,12.11
2023-05-12T13:40:07.591Z,12.11
2023-05-12T13:42:35.816Z,11.89
2023-05-12T13:45:04.609Z,11.95
2023-05-12T13:47:32.550Z,11.98
2023-05-12T13:50:00.835Z,12.03
2023-05-12T13:52:28.723Z,11.96
2023-05-12T13:54:56.794Z,12.05
2023-05-12T13:57:24.726Z,12.12
2023-05-12T13:59:55.091Z,12.06
2023-05-12T14:02:23.916Z,11.95
2023-05-12T14:04:51.973Z,12.03
2023-05-12T14:07:20.756Z,12.02
2023-05-12T14:09:48.582Z,11.97
2023-05-12T14:12:16.612Z,11.90
2023-05-12T14:14:50.003Z,11.81
2023-05-12T14:17:18.906Z,11.44
2023-05-12T14:19:46.859Z,11.79
2023-05-12T14:22:25.297Z,11.75
2023-05-12T14:24:56.055Z,11.91
2023-05-12T14:27:24.377Z,12.01
2023-05-12T14:29:52.417Z,11.99
2023-05-12T14:32:20.434Z,11.92
2023-05-12T14:34:48.405Z,11.90
2023-05-12T14:37:16.333Z,11.70
2023-05-12T14:39:44.340Z,11.79
2023-05-12T14:42:12.710Z,11.98
2023-05-12T14:44:41.100Z,11.90
2023-05-12T14:47:09.350Z,12.07
2023-05-12T14:49:37.669Z,12.32
2023-05-12T14:52:06.793Z,12.26
2023-05-12T14:54:34.912Z,12.11
2023-05-12T14:57:04.440Z,12.15
2023-05-12T14:59:33.029Z,12.27
2023-05-12T15:02:01.319Z,12.14
2023-05-12T15:04:31.853Z,12.08
2023-05-12T15:07:00.189Z,12.08
2023-05-12T15:09:28.404Z,12.07
2023-05-12T15:11:56.692Z,11.98
2023-05-12T15:16:58.199Z,11.89
2023-05-12T15:19:26.560Z,11.79
2023-05-12T15:21:55.098Z,11.77
2023-05-12T15:24:23.049Z,11.76
2023-05-12T15:26:51.464Z,11.82
2023-05-12T15:29:19.462Z,12.02
2023-05-12T15:31:49.567Z,12.02
2023-05-12T15:34:17.990Z,12.03
2023-05-12T15:36:49.110Z,11.94
2023-05-12T15:39:17.580Z,11.79
2023-05-12T15:41:45.959Z,11.87
2023-05-12T15:44:14.556Z,11.90
2023-05-12T15:46:44.041Z,11.92
2023-05-12T15:49:12.370Z,11.89
2023-05-12T15:51:40.360Z,11.91
2023-05-12T15:54:09.756Z,11.85
2023-05-12T15:56:39.175Z,11.89
2023-05-12T15:59:07.721Z,11.85
2023-05-12T16:01:36.110Z,11.82
2023-05-12T16:04:04.629Z,11.95
2023-05-12T16:06:33.071Z,11.91
2023-05-12T16:09:01.982Z,11.85
2023-05-12T16:11:30.400Z,11.88
2023-05-12T16:13:59.986Z,11.85
2023-05-12T16:16:28.662Z,11.77
2023-05-12T16:18:57.210Z,11.70
2023-05-12T16:21:25.908Z,11.52
2023-05-12T16:23:54.429Z,11.56
2023-05-12T16:26:23.871Z,11.51
2023-05-12T16:28:52.385Z,11.53
2023-05-12T16:31:20.929Z,11.55
2023-05-12T16:33:49.960Z,11.57
2023-05-12T16:36:19.626Z,11.46
2023-05-12T16:38:48.645Z,11.43
2023-05-12T16:41:17.129Z,11.31
2023-05-12T16:43:45.875Z,11.32
2023-05-12T16:46:14.733Z,11.39
2023-05-12T16:48:43.284Z,11.42
2023-05-12T16:51:11.962Z,11.30
2023-05-12T16:53:41.531Z,11.22
2023-05-12T16:56:10.374Z,11.22
2023-05-12T16:58:38.754Z,11.22
2023-05-12T17:01:07.027Z,11.11
2023-05-12T17:03:35.612Z,11.09
2023-05-12T17:06:04.551Z,11.05
2023-05-12T17:08:36.087Z,10.93
2023-05-12T17:11:05.612Z,11.01
2023-05-12T17:13:37.422Z,11.09
2023-05-12T17:16:06.358Z,10.97
2023-05-12T17:19:13.565Z,11.08
2023-05-12T17:21:23.427Z,11.14
2023-05-12T17:23:52.061Z,11.21
2023-05-12T17:26:20.464Z,11.28
2023-05-12T17:28:49.060Z,11.30
2023-05-12T17:31:17.616Z,11.37
2023-05-12T17:33:46.227Z,11.39
2023-05-12T17:36:14.930Z,11.39
2023-05-12T17:38:44.172Z,11.34
2023-05-12T17:41:12.600Z,11.36
2023-05-12T17:43:41.908Z,11.31
2023-05-12T17:46:10.446Z,11.26
2023-05-12T17:48:39.098Z,11.15
2023-05-12T17:51:07.785Z,11.12
2023-05-12T17:53:36.337Z,11.09
2023-05-12T17:56:05.103Z,10.94
2023-05-12T17:58:33.522Z,10.94
2023-05-12T18:01:02.203Z,10.90
2023-05-12T18:03:31.022Z,10.88
2023-05-12T18:05:59.808Z,10.75
2023-05-12T18:08:28.671Z,10.74
2023-05-12T18:10:57.128Z,10.67
2023-05-12T18:13:25.544Z,10.58
2023-05-12T18:15:54.136Z,10.46
2023-05-12T18:18:22.963Z,10.50
2023-05-12T18:20:52.449Z,10.47
2023-05-12T18:23:20.746Z,10.41
2023-05-12T18:25:49.136Z,10.32
2023-05-12T18:28:17.601Z,10.22
2023-05-12T18:30:46.087Z,10.08
2023-05-12T18:33:14.785Z,9.99
2023-05-12T18:35:43.241Z,9.98
2023-05-12T18:38:11.742Z,9.96
2023-05-12T18:40:40.310Z,9.97
2023-05-12T18:43:08.956Z,9.87
2023-05-12T18:45:37.931Z,9.84
2023-05-12T18:48:06.742Z,9.74
2023-05-12T18:50:35.190Z,9.58
2023-05-12T18:53:03.803Z,9.59
2023-05-12T18:55:32.333Z,9.54
2023-05-12T18:58:00.906Z,9.52
2023-05-12T19:00:32.293Z,9.53
2023-05-12T19:03:01.234Z,9.41
2023-05-12T19:05:30.693Z,9.44
2023-05-12T19:07:59.196Z,9.34
2023-05-12T19:10:27.783Z,9.22
2023-05-12T19:12:56.709Z,9.07
2023-05-12T19:15:25.505Z,9.06
2023-05-12T19:17:54.353Z,9.06
2023-05-12T19:20:23.282Z,9.09
2023-05-12T19:22:51.670Z,9.13
2023-05-12T19:25:20.535Z,9.14
2023-05-12T19:27:49.102Z,9.12
2023-05-12T19:30:17.615Z,9.08
2023-05-12T19:32:49.589Z,8.93
2023-05-12T19:35:18.317Z,8.83
2023-05-12T19:37:47.390Z,8.64
2023-05-12T19:40:15.927Z,8.26
2023-05-12T19:42:44.400Z,8.46
2023-05-12T19:45:13.209Z,8.48
2023-05-12T19:47:41.923Z,8.42
2023-05-12T19:50:10.945Z,8.50
2023-05-12T19:52:39.602Z,8.55
2023-05-12T19:55:08.974Z,8.63
2023-05-12T19:57:37.866Z,8.55
2023-05-12T20:00:06.601Z,8.53
2023-05-12T20:02:41.251Z,8.61
2023-05-12T20:05:10.216Z,8.63
2023-05-12T20:07:39.410Z,8.66
2023-05-12T20:10:08.777Z,8.68
2023-05-12T20:12:37.298Z,8.64
2023-05-12T20:15:07.205Z,8.61
2023-05-12T20:17:36.537Z,8.67
2023-05-12T20:20:05.774Z,8.60
2023-05-12T20:22:34.310Z,8.61
2023-05-12T20:25:05.243Z,8.66
2023-05-12T20:27:34.873Z,8.43
2023-05-12T20:30:03.718Z,8.28
2023-05-12T20:32:32.885Z,8.37
2023-05-12T20:35:01.365Z,8.36
2023-05-12T20:37:29.946Z,8.46
2023-05-12T20:39:58.701Z,8.52
2023-05-12T20:42:27.313Z,8.50
2023-05-12T20:44:55.577Z,8.56
2023-05-12T20:47:24.626Z,8.51
2023-05-12T20:49:57.606Z,8.36
2023-05-12T20:52:29.124Z,8.46
2023-05-12T20:54:59.267Z,8.26
2023-05-12T20:57:27.866Z,8.17
2023-05-12T20:59:57.480Z,8.41
2023-05-12T21:02:27.435Z,8.56
2023-05-12T21:04:56.129Z,8.60
2023-05-12T21:07:24.822Z,8.64
2023-05-12T21:09:53.312Z,8.51
2023-05-12T21:12:22.077Z,8.49
2023-05-12T21:14:50.166Z,8.33
2023-05-12T21:17:18.385Z,8.39
2023-05-12T21:19:46.412Z,8.47
2023-05-12T21:22:14.425Z,8.55
2023-05-12T21:24:43.259Z,8.56
2023-05-12T21:27:12.118Z,8.56
2023-05-12T21:29:41.000Z,8.57
2023-05-12T21:32:09.285Z,8.59
2023-05-12T21:34:37.405Z,8.62
2023-05-12T21:37:06.044Z,8.58
2023-05-12T21:39:34.342Z,8.54
2023-05-12T21:42:02.790Z,8.69
2023-05-12T21:44:30.720Z,8.78
2023-05-12T21:46:58.985Z,8.59
2023-05-12T21:49:27.149Z,8.73
2023-05-12T21:51:55.959Z,8.97
2023-05-12T21:54:23.834Z,8.88
2023-05-12T21:56:52.013Z,9.20
2023-05-12T21:59:20.890Z,9.27
2023-05-12T22:01:49.003Z,9.41
2023-05-12T22:04:17.135Z,9.49
2023-05-12T22:06:45.079Z,9.56
2023-05-12T22:09:13.456Z,9.40
2023-05-12T22:11:42.315Z,9.51
2023-05-12T22:14:10.204Z,9.72
2023-05-12T22:16:41.796Z,9.82
2023-05-12T22:19:10.674Z,9.89
2023-05-12T22:21:38.820Z,9.96
2023-05-12T22:24:07.204Z,9.98
2023-05-12T22:26:35.150Z,9.87
2023-05-12T22:29:03.236Z,9.96
2023-05-12T22:31:31.175Z,10.00
2023-05-12T22:33:59.395Z,10.01
2023-05-12T22:36:27.373Z,10.05
2023-05-12T22:38:55.560Z,9.86
2023-05-12T22:41:23.719Z,9.85
2023-05-12T22:43:51.980Z,9.91
2023-05-12T22:46:19.878Z,10.03
2023-05-12T22:48:47.919Z,10.03
2023-05-12T22:51:16.034Z,10.04
2023-05-12T22:53:44.166Z,10.03
2023-05-12T22:56:12.233Z,10.07
2023-05-12T22:58:40.205Z,9.98
2023-05-12T23:01:08.270Z,9.94
2023-05-12T23:03:36.453Z,9.87
2023-05-12T23:06:04.601Z,9.90
2023-05-12T23:08:32.479Z,9.86
2023-05-12T23:11:00.541Z,9.78
2023-05-12T23:13:29.971Z,9.81
2023-05-12T23:15:58.023Z,9.83
2023-05-12T23:18:26.045Z,9.88
2023-05-12T23:20:53.898Z,9.92
2023-05-12T23:23:21.857Z,9.91
2023-05-12T23:25:50.234Z,9.85
2023-05-12T23:28:18.229Z,9.91
2023-05-12T23:30:46.154Z,9.94
2023-05-12T23:33:14.185Z,9.92
2023-05-12T23:35:42.329Z,9.99
2023-05-12T23:38:10.704Z,9.97
2023-05-12T23:40:39.480Z,9.94
2023-05-12T23:43:08.338Z,9.99
2023-05-12T23:45:36.280Z,9.96
2023-05-12T23:48:04.622Z,9.91
2023-05-12T23:50:32.572Z,9.80
2023-05-12T23:53:00.725Z,9.77
2023-05-12T23:55:28.581Z,9.77
2023-05-12T23:57:56.954Z,9.79
